Terminal Aerodrome Forecast
Issued by NWS North Platte, NE

Home | Current Version | Previous Version | Text Only | Print | Product List | Glossary On
Versions: 1 2 3 4 5 6 7 8 9 10 11 12 13 14 15 16
804
FTUS43 KLBF 221120
TAFVTN
TAF
KVTN 221120Z 2212/2312 33015KT 5SM -SN BR OVC035
     FM221300 33015KT P6SM OVC035
     FM221500 33014G21KT P6SM BKN035
     FM221800 33015KT P6SM SKC
     FM230000 32006KT P6SM SKC=

USA.gov is the U.S. government's official web portal to all federal, state and local government web resources and services.